Terminal Aerodrome Forecast
Issued by NWS

Home | Current Version | Previous Version | Text Only | Print | Product List | Glossary On
Versions: 1 2 3 4 5 6 7 8 9 10 11 12 13
000
FTUS44 KLIX 041317 AAA
TAFMCB
TAF AMD
KMCB 041317Z 0413/0512 VRB03KT P6SM SCT020 BKN070
     FM041600 14009KT P6SM BKN040
     FM050000 15005KT P6SM FEW060 BKN250
     FM050300 16007KT P6SM SCT250=

USA.gov is the U.S. government's official web portal to all federal, state and local government web resources and services.